sensor_id;sensor_type;location;lat;lon;timestamp;temperature;humidity
78898;DHT22;68287;44.714;37.756;2023-03-01T00:01:12;19.34;50.13
78898;DHT22;68287;44.714;37.756;2023-03-01T00:02:13;19.34;50.10
78898;DHT22;68287;44.714;37.756;2023-03-01T00:03:14;19.35;50.12
78898;DHT22;68287;44.714;37.756;2023-03-01T00:04:16;19.34;50.14
78898;DHT22;68287;44.714;37.756;2023-03-01T00:05:17;19.34;50.14
78898;DHT22;68287;44.714;37.756;2023-03-01T00:06:19;19.35;50.13
78898;DHT22;68287;44.714;37.756;2023-03-01T00:07:21;19.35;50.13
78898;DHT22;68287;44.714;37.756;2023-03-01T00:08:22;19.33;50.08
78898;DHT22;68287;44.714;37.756;2023-03-01T00:09:23;19.35;50.12
78898;DHT22;68287;44.714;37.756;2023-03-01T00:10:25;19.34;50.13
78898;DHT22;68287;44.714;37.756;2023-03-01T00:11:29;19.34;50.17
78898;DHT22;68287;44.714;37.756;2023-03-01T00:12:31;19.35;50.12
78898;DHT22;68287;44.714;37.756;2023-03-01T00:13:34;19.34;50.14
78898;DHT22;68287;44.714;37.756;2023-03-01T00:14:35;19.34;50.16
78898;DHT22;68287;44.714;37.756;2023-03-01T00:15:40;19.34;50.12
78898;DHT22;68287;44.714;37.756;2023-03-01T00:16:43;19.33;50.13
78898;DHT22;68287;44.714;37.756;2023-03-01T00:17:45;19.33;50.14
78898;DHT22;68287;44.714;37.756;2023-03-01T00:18:46;19.31;50.17
78898;DHT22;68287;44.714;37.756;2023-03-01T00:19:48;19.34;50.17
78898;DHT22;68287;44.714;37.756;2023-03-01T00:20:53;19.34;50.20
78898;DHT22;68287;44.714;37.756;2023-03-01T00:21:55;19.31;50.21
78898;DHT22;68287;44.714;37.756;2023-03-01T00:22:56;19.33;50.27
78898;DHT22;68287;44.714;37.756;2023-03-01T00:23:58;19.31;50.22
78898;DHT22;68287;44.714;37.756;2023-03-01T00:24:59;19.31;50.22
78898;DHT22;68287;44.714;37.756;2023-03-01T00:26:01;19.33;50.22
78898;DHT22;68287;44.714;37.756;2023-03-01T00:27:02;19.33;50.28
78898;DHT22;68287;44.714;37.756;2023-03-01T00:28:04;19.30;50.22
78898;DHT22;68287;44.714;37.756;2023-03-01T00:29:06;19.33;50.26
78898;DHT22;68287;44.714;37.756;2023-03-01T00:30:11;19.31;50.22
78898;DHT22;68287;44.714;37.756;2023-03-01T00:31:15;19.31;50.25
78898;DHT22;68287;44.714;37.756;2023-03-01T00:32:17;19.31;50.27
78898;DHT22;68287;44.714;37.756;2023-03-01T00:33:18;19.33;50.28
78898;DHT22;68287;44.714;37.756;2023-03-01T00:34:20;19.31;50.22
78898;DHT22;68287;44.714;37.756;2023-03-01T00:35:21;19.33;50.25
78898;DHT22;68287;44.714;37.756;2023-03-01T00:36:29;19.30;50.22
78898;DHT22;68287;44.714;37.756;2023-03-01T00:37:31;19.30;50.25
78898;DHT22;68287;44.714;37.756;2023-03-01T00:38:40;19.31;50.28
78898;DHT22;68287;44.714;37.756;2023-03-01T00:39:42;19.30;50.26
78898;DHT22;68287;44.714;37.756;2023-03-01T00:40:44;19.31;50.25
78898;DHT22;68287;44.714;37.756;2023-03-01T00:41:46;19.31;50.29
78898;DHT22;68287;44.714;37.756;2023-03-01T00:42:47;19.31;50.26
78898;DHT22;68287;44.714;37.756;2023-03-01T00:43:49;19.31;50.25
78898;DHT22;68287;44.714;37.756;2023-03-01T00:44:51;19.33;50.26
78898;DHT22;68287;44.714;37.756;2023-03-01T00:45:52;19.30;50.26
78898;DHT22;68287;44.714;37.756;2023-03-01T00:46:54;19.30;50.26
78898;DHT22;68287;44.714;37.756;2023-03-01T00:47:56;19.30;50.32
78898;DHT22;68287;44.714;37.756;2023-03-01T00:48:57;19.33;50.30
78898;DHT22;68287;44.714;37.756;2023-03-01T00:49:59;19.33;50.29
78898;DHT22;68287;44.714;37.756;2023-03-01T00:51:24;19.31;50.30
78898;DHT22;68287;44.714;37.756;2023-03-01T00:52:26;19.31;50.32
78898;DHT22;68287;44.714;37.756;2023-03-01T00:53:29;19.30;50.32
78898;DHT22;68287;44.714;37.756;2023-03-01T00:54:31;19.31;50.34
78898;DHT22;68287;44.714;37.756;2023-03-01T00:55:32;19.31;50.31
78898;DHT22;68287;44.714;37.756;2023-03-01T00:56:34;19.28;50.32
78898;DHT22;68287;44.714;37.756;2023-03-01T00:57:35;19.28;50.34
78898;DHT22;68287;44.714;37.756;2023-03-01T00:58:37;19.30;50.35
78898;DHT22;68287;44.714;37.756;2023-03-01T00:59:39;19.30;50.34
78898;DHT22;68287;44.714;37.756;2023-03-01T01:00:40;19.30;50.28
78898;DHT22;68287;44.714;37.756;2023-03-01T01:01:41;19.31;50.31
78898;DHT22;68287;44.714;37.756;2023-03-01T01:02:44;19.28;50.31
78898;DHT22;68287;44.714;37.756;2023-03-01T01:03:53;19.30;50.31
78898;DHT22;68287;44.714;37.756;2023-03-01T01:04:55;19.28;50.32
78898;DHT22;68287;44.714;37.756;2023-03-01T01:05:57;19.30;50.32
78898;DHT22;68287;44.714;37.756;2023-03-01T01:06:59;19.31;50.34
78898;DHT22;68287;44.714;37.756;2023-03-01T01:08:00;19.31;50.37
78898;DHT22;68287;44.714;37.756;2023-03-01T01:09:04;19.28;50.30
78898;DHT22;68287;44.714;37.756;2023-03-01T01:10:07;19.28;50.36
78898;DHT22;68287;44.714;37.756;2023-03-01T01:11:10;19.28;50.35
78898;DHT22;68287;44.714;37.756;2023-03-01T01:12:11;19.30;50.29
78898;DHT22;68287;44.714;37.756;2023-03-01T01:13:13;19.31;50.31
78898;DHT22;68287;44.714;37.756;2023-03-01T01:14:15;19.30;50.30
78898;DHT22;68287;44.714;37.756;2023-03-01T01:15:16;19.31;50.32
78898;DHT22;68287;44.714;37.756;2023-03-01T01:16:19;19.30;50.31
78898;DHT22;68287;44.714;37.756;2023-03-01T01:17:21;19.28;50.32
78898;DHT22;68287;44.714;37.756;2023-03-01T01:18:22;19.27;50.31
78898;DHT22;68287;44.714;37.756;2023-03-01T01:19:24;19.30;50.34
78898;DHT22;68287;44.714;37.756;2023-03-01T01:20:27;19.28;50.31
78898;DHT22;68287;44.714;37.756;2023-03-01T01:21:28;19.26;50.30
78898;DHT22;68287;44.714;37.756;2023-03-01T01:22:30;19.27;50.27
78898;DHT22;68287;44.714;37.756;2023-03-01T01:23:32;19.30;50.32
78898;DHT22;68287;44.714;37.756;2023-03-01T01:24:34;19.28;50.34
78898;DHT22;68287;44.714;37.756;2023-03-01T01:25:35;19.26;50.36
78898;DHT22;68287;44.714;37.756;2023-03-01T01:26:37;19.28;50.37
78898;DHT22;68287;44.714;37.756;2023-03-01T01:27:39;19.28;50.36
78898;DHT22;68287;44.714;37.756;2023-03-01T01:28:41;19.27;50.32
78898;DHT22;68287;44.714;37.756;2023-03-01T01:29:42;19.26;50.35
78898;DHT22;68287;44.714;37.756;2023-03-01T01:30:44;19.28;50.37
78898;DHT22;68287;44.714;37.756;2023-03-01T01:31:45;19.27;50.36
78898;DHT22;68287;44.714;37.756;2023-03-01T01:32:47;19.27;50.39
78898;DHT22;68287;44.714;37.756;2023-03-01T01:33:50;19.27;50.38
78898;DHT22;68287;44.714;37.756;2023-03-01T01:34:51;19.27;50.38
78898;DHT22;68287;44.714;37.756;2023-03-01T01:35:53;19.27;50.41
78898;DHT22;68287;44.714;37.756;2023-03-01T01:36:54;19.27;50.42
78898;DHT22;68287;44.714;37.756;2023-03-01T01:37:56;19.26;50.41
78898;DHT22;68287;44.714;37.756;2023-03-01T01:38:58;19.27;50.42
78898;DHT22;68287;44.714;37.756;2023-03-01T01:40:00;19.27;50.38
78898;DHT22;68287;44.714;37.756;2023-03-01T01:41:05;19.27;50.37
78898;DHT22;68287;44.714;37.756;2023-03-01T01:42:15;19.27;50.37
78898;DHT22;68287;44.714;37.756;2023-03-01T01:43:27;19.27;50.42
78898;DHT22;68287;44.714;37.756;2023-03-01T01:44:29;19.26;50.41
78898;DHT22;68287;44.714;37.756;2023-03-01T01:45:34;19.26;50.41
78898;DHT22;68287;44.714;37.756;2023-03-01T01:46:49;19.26;50.38
78898;DHT22;68287;44.714;37.756;2023-03-01T01:47:52;19.27;50.41
78898;DHT22;68287;44.714;37.756;2023-03-01T01:49:02;19.27;50.38
78898;DHT22;68287;44.714;37.756;2023-03-01T01:50:14;19.24;50.34
78898;DHT22;68287;44.714;37.756;2023-03-01T01:51:24;19.26;50.41
78898;DHT22;68287;44.714;37.756;2023-03-01T01:52:31;19.26;50.38
78898;DHT22;68287;44.714;37.756;2023-03-01T01:53:33;19.24;50.40
78898;DHT22;68287;44.714;37.756;2023-03-01T01:55:00;19.27;50.39
78898;DHT22;68287;44.714;37.756;2023-03-01T01:56:03;19.26;50.38
78898;DHT22;68287;44.714;37.756;2023-03-01T01:57:14;19.26;50.43
78898;DHT22;68287;44.714;37.756;2023-03-01T01:58:19;19.24;50.48
78898;DHT22;68287;44.714;37.756;2023-03-01T01:59:23;19.24;50.39
78898;DHT22;68287;44.714;37.756;2023-03-01T02:00:27;19.26;50.42
78898;DHT22;68287;44.714;37.756;2023-03-01T02:01:29;19.27;50.39
78898;DHT22;68287;44.714;37.756;2023-03-01T02:02:30;19.26;50.40
78898;DHT22;68287;44.714;37.756;2023-03-01T02:03:33;19.27;50.43
78898;DHT22;68287;44.714;37.756;2023-03-01T02:04:38;19.24;50.42
78898;DHT22;68287;44.714;37.756;2023-03-01T02:06:59;19.23;50.39
78898;DHT22;68287;44.714;37.756;2023-03-01T02:08:02;19.24;50.38
78898;DHT22;68287;44.714;37.756;2023-03-01T02:09:07;19.26;50.43
78898;DHT22;68287;44.714;37.756;2023-03-01T02:10:10;19.26;50.41
78898;DHT22;68287;44.714;37.756;2023-03-01T02:11:12;19.24;50.39
78898;DHT22;68287;44.714;37.756;2023-03-01T02:12:21;19.23;50.42
78898;DHT22;68287;44.714;37.756;2023-03-01T02:13:24;19.20;50.42
78898;DHT22;68287;44.714;37.756;2023-03-01T02:14:25;19.24;50.42
78898;DHT22;68287;44.714;37.756;2023-03-01T02:15:31;19.24;50.39
78898;DHT22;68287;44.714;37.756;2023-03-01T02:16:34;19.26;50.42
78898;DHT22;68287;44.714;37.756;2023-03-01T02:17:36;19.23;50.36
78898;DHT22;68287;44.714;37.756;2023-03-01T02:18:39;19.24;50.41
78898;DHT22;68287;44.714;37.756;2023-03-01T02:22:37;19.20;50.41
78898;DHT22;68287;44.714;37.756;2023-03-01T02:23:40;19.22;50.40
78898;DHT22;68287;44.714;37.756;2023-03-01T02:26:02;19.23;50.41
78898;DHT22;68287;44.714;37.756;2023-03-01T02:27:09;19.20;50.39
78898;DHT22;68287;44.714;37.756;2023-03-01T02:29:16;19.23;50.39
78898;DHT22;68287;44.714;37.756;2023-03-01T02:30:19;19.22;50.37
78898;DHT22;68287;44.714;37.756;2023-03-01T02:31:22;19.22;50.38
78898;DHT22;68287;44.714;37.756;2023-03-01T02:32:42;19.22;50.38
78898;DHT22;68287;44.714;37.756;2023-03-01T02:33:45;19.23;50.42
78898;DHT22;68287;44.714;37.756;2023-03-01T02:34:47;19.23;50.36
78898;DHT22;68287;44.714;37.756;2023-03-01T02:35:48;19.20;50.38
78898;DHT22;68287;44.714;37.756;2023-03-01T02:36:56;19.22;50.37
78898;DHT22;68287;44.714;37.756;2023-03-01T02:37:58;19.20;50.42
78898;DHT22;68287;44.714;37.756;2023-03-01T02:39:06;19.20;50.45
78898;DHT22;68287;44.714;37.756;2023-03-01T02:40:13;19.20;50.41
78898;DHT22;68287;44.714;37.756;2023-03-01T02:41:17;19.19;50.41
78898;DHT22;68287;44.714;37.756;2023-03-01T02:42:23;19.17;50.41
78898;DHT22;68287;44.714;37.756;2023-03-01T02:43:29;19.19;50.39
78898;DHT22;68287;44.714;37.756;2023-03-01T02:44:32;19.19;50.45
78898;DHT22;68287;44.714;37.756;2023-03-01T02:45:33;19.19;50.41
78898;DHT22;68287;44.714;37.756;2023-03-01T02:46:42;19.20;50.41
78898;DHT22;68287;44.714;37.756;2023-03-01T02:47:44;19.20;50.40
78898;DHT22;68287;44.714;37.756;2023-03-01T02:48:48;19.19;50.40
78898;DHT22;68287;44.714;37.756;2023-03-01T02:49:50;19.19;50.42
78898;DHT22;68287;44.714;37.756;2023-03-01T02:51:05;19.19;50.41
78898;DHT22;68287;44.714;37.756;2023-03-01T02:52:30;19.17;50.37
78898;DHT22;68287;44.714;37.756;2023-03-01T02:53:58;19.19;50.40
78898;DHT22;68287;44.714;37.756;2023-03-01T02:55:07;19.16;50.41
78898;DHT22;68287;44.714;37.756;2023-03-01T02:56:09;19.17;50.37
78898;DHT22;68287;44.714;37.756;2023-03-01T02:57:15;19.19;50.38
78898;DHT22;68287;44.714;37.756;2023-03-01T02:58:17;19.19;50.40
78898;DHT22;68287;44.714;37.756;2023-03-01T02:59:26;19.17;50.41
78898;DHT22;68287;44.714;37.756;2023-03-01T03:00:38;19.20;50.36
78898;DHT22;68287;44.714;37.756;2023-03-01T03:01:41;19.17;50.37
78898;DHT22;68287;44.714;37.756;2023-03-01T03:02:43;19.16;50.42
78898;DHT22;68287;44.714;37.756;2023-03-01T03:03:50;19.14;50.37
78898;DHT22;68287;44.714;37.756;2023-03-01T03:04:52;19.20;50.37
78898;DHT22;68287;44.714;37.756;2023-03-01T03:05:53;19.14;50.41
78898;DHT22;68287;44.714;37.756;2023-03-01T03:06:55;19.17;50.37
78898;DHT22;68287;44.714;37.756;2023-03-01T03:07:59;19.17;50.36
78898;DHT22;68287;44.714;37.756;2023-03-01T03:09:02;19.17;50.43
78898;DHT22;68287;44.714;37.756;2023-03-01T03:10:07;19.14;50.38
78898;DHT22;68287;44.714;37.756;2023-03-01T03:11:09;19.17;50.37
78898;DHT22;68287;44.714;37.756;2023-03-01T03:12:11;19.19;50.33
78898;DHT22;68287;44.714;37.756;2023-03-01T03:13:13;19.16;50.39
78898;DHT22;68287;44.714;37.756;2023-03-01T03:14:16;19.17;50.42
78898;DHT22;68287;44.714;37.756;2023-03-01T03:15:21;19.17;50.40
78898;DHT22;68287;44.714;37.756;2023-03-01T03:16:22;19.16;50.42
78898;DHT22;68287;44.714;37.756;2023-03-01T03:17:24;19.14;50.41
78898;DHT22;68287;44.714;37.756;2023-03-01T03:18:25;19.17;50.37
78898;DHT22;68287;44.714;37.756;2023-03-01T03:19:29;19.17;50.39
78898;DHT22;68287;44.714;37.756;2023-03-01T03:20:30;19.17;50.36
78898;DHT22;68287;44.714;37.756;2023-03-01T03:21:33;19.16;50.40
78898;DHT22;68287;44.714;37.756;2023-03-01T03:22:34;19.14;50.38
78898;DHT22;68287;44.714;37.756;2023-03-01T03:23:36;19.17;50.36
78898;DHT22;68287;44.714;37.756;2023-03-01T03:24:37;19.16;50.34
78898;DHT22;68287;44.714;37.756;2023-03-01T03:25:39;19.14;50.36
78898;DHT22;68287;44.714;37.756;2023-03-01T03:26:40;19.16;50.36
78898;DHT22;68287;44.714;37.756;2023-03-01T03:27:43;19.17;50.39
78898;DHT22;68287;44.714;37.756;2023-03-01T03:28:47;19.14;50.38
78898;DHT22;68287;44.714;37.756;2023-03-01T03:29:48;19.16;50.37
78898;DHT22;68287;44.714;37.756;2023-03-01T03:30:50;19.19;50.36
78898;DHT22;68287;44.714;37.756;2023-03-01T03:31:53;19.14;50.32
78898;DHT22;68287;44.714;37.756;2023-03-01T03:32:55;19.16;50.27
78898;DHT22;68287;44.714;37.756;2023-03-01T03:33:57;19.17;50.31
78898;DHT22;68287;44.714;37.756;2023-03-01T03:34:59;19.16;50.37
78898;DHT22;68287;44.714;37.756;2023-03-01T03:36:01;19.14;50.36
78898;DHT22;68287;44.714;37.756;2023-03-01T03:37:02;19.16;50.42
78898;DHT22;68287;44.714;37.756;2023-03-01T03:38:06;19.14;50.41
78898;DHT22;68287;44.714;37.756;2023-03-01T03:39:10;19.14;50.41
78898;DHT22;68287;44.714;37.756;2023-03-01T03:40:11;19.12;50.48
78898;DHT22;68287;44.714;37.756;2023-03-01T03:41:16;19.13;50.57
78898;DHT22;68287;44.714;37.756;2023-03-01T03:42:18;19.12;50.51
78898;DHT22;68287;44.714;37.756;2023-03-01T03:43:21;19.12;50.53
78898;DHT22;68287;44.714;37.756;2023-03-01T03:44:23;19.13;50.55
78898;DHT22;68287;44.714;37.756;2023-03-01T03:45:24;19.13;50.55
78898;DHT22;68287;44.714;37.756;2023-03-01T03:46:26;19.12;50.54
78898;DHT22;68287;44.714;37.756;2023-03-01T03:47:27;19.13;50.54
78898;DHT22;68287;44.714;37.756;2023-03-01T03:48:28;19.13;50.56
78898;DHT22;68287;44.714;37.756;2023-03-01T03:49:29;19.10;50.54
78898;DHT22;68287;44.714;37.756;2023-03-01T03:50:32;19.14;50.59
78898;DHT22;68287;44.714;37.756;2023-03-01T03:51:33;19.13;50.55
78898;DHT22;68287;44.714;37.756;2023-03-01T03:52:34;19.13;50.58
78898;DHT22;68287;44.714;37.756;2023-03-01T03:53:36;19.14;50.60
78898;DHT22;68287;44.714;37.756;2023-03-01T03:54:37;19.16;50.49
78898;DHT22;68287;44.714;37.756;2023-03-01T03:55:39;19.16;50.37
78898;DHT22;68287;44.714;37.756;2023-03-01T03:56:40;19.14;50.25
78898;DHT22;68287;44.714;37.756;2023-03-01T03:57:41;19.13;50.29
78898;DHT22;68287;44.714;37.756;2023-03-01T03:58:43;19.12;50.14
78898;DHT22;68287;44.714;37.756;2023-03-01T03:59:44;19.13;49.94
78898;DHT22;68287;44.714;37.756;2023-03-01T04:00:46;19.10;49.84
78898;DHT22;68287;44.714;37.756;2023-03-01T04:01:48;19.06;50.00
78898;DHT22;68287;44.714;37.756;2023-03-01T04:02:50;19.09;50.47
78898;DHT22;68287;44.714;37.756;2023-03-01T04:03:52;19.12;50.55
78898;DHT22;68287;44.714;37.756;2023-03-01T04:04:55;19.12;50.50
78898;DHT22;68287;44.714;37.756;2023-03-01T04:06:00;19.10;50.50
78898;DHT22;68287;44.714;37.756;2023-03-01T04:07:01;19.13;50.56
78898;DHT22;68287;44.714;37.756;2023-03-01T04:08:03;19.10;50.52
78898;DHT22;68287;44.714;37.756;2023-03-01T04:09:08;19.12;50.57
78898;DHT22;68287;44.714;37.756;2023-03-01T04:10:16;19.12;50.78
78898;DHT22;68287;44.714;37.756;2023-03-01T04:11:18;19.13;50.81
78898;DHT22;68287;44.714;37.756;2023-03-01T04:12:28;19.13;50.67
78898;DHT22;68287;44.714;37.756;2023-03-01T04:13:29;19.13;50.59
78898;DHT22;68287;44.714;37.756;2023-03-01T04:14:31;19.13;50.59
78898;DHT22;68287;44.714;37.756;2023-03-01T04:15:33;19.14;50.60
78898;DHT22;68287;44.714;37.756;2023-03-01T04:16:34;19.13;50.58
78898;DHT22;68287;44.714;37.756;2023-03-01T04:17:36;19.12;50.74
78898;DHT22;68287;44.714;37.756;2023-03-01T04:18:37;19.10;50.77
78898;DHT22;68287;44.714;37.756;2023-03-01T04:19:38;19.07;50.77
78898;DHT22;68287;44.714;37.756;2023-03-01T04:20:40;19.10;50.59
78898;DHT22;68287;44.714;37.756;2023-03-01T04:21:41;19.09;50.50
78898;DHT22;68287;44.714;37.756;2023-03-01T04:22:43;19.07;50.91
78898;DHT22;68287;44.714;37.756;2023-03-01T04:23:47;19.10;50.84
78898;DHT22;68287;44.714;37.756;2023-03-01T04:24:49;19.09;50.72
78898;DHT22;68287;44.714;37.756;2023-03-01T04:25:55;19.10;50.82
78898;DHT22;68287;44.714;37.756;2023-03-01T04:26:57;19.12;50.82
78898;DHT22;68287;44.714;37.756;2023-03-01T04:27:58;19.12;50.66
78898;DHT22;68287;44.714;37.756;2023-03-01T04:29:00;19.10;50.75
78898;DHT22;68287;44.714;37.756;2023-03-01T04:30:03;19.13;50.74
78898;DHT22;68287;44.714;37.756;2023-03-01T04:31:07;19.12;50.67
78898;DHT22;68287;44.714;37.756;2023-03-01T04:32:14;19.10;50.64
78898;DHT22;68287;44.714;37.756;2023-03-01T04:33:17;19.10;50.65
78898;DHT22;68287;44.714;37.756;2023-03-01T04:34:19;19.12;50.54
78898;DHT22;68287;44.714;37.756;2023-03-01T04:35:20;19.10;50.54
78898;DHT22;68287;44.714;37.756;2023-03-01T04:36:27;19.10;50.54
78898;DHT22;68287;44.714;37.756;2023-03-01T04:37:29;19.12;50.48
78898;DHT22;68287;44.714;37.756;2023-03-01T04:38:30;19.09;50.51
78898;DHT22;68287;44.714;37.756;2023-03-01T04:39:32;19.07;50.51
78898;DHT22;68287;44.714;37.756;2023-03-01T04:40:33;19.07;50.51
78898;DHT22;68287;44.714;37.756;2023-03-01T04:41:35;19.09;50.40
78898;DHT22;68287;44.714;37.756;2023-03-01T04:42:36;19.07;50.40
78898;DHT22;68287;44.714;37.756;2023-03-01T04:43:37;19.07;50.41
78898;DHT22;68287;44.714;37.756;2023-03-01T04:44:39;19.09;50.40
78898;DHT22;68287;44.714;37.756;2023-03-01T04:45:40;19.06;50.36
78898;DHT22;68287;44.714;37.756;2023-03-01T04:46:42;19.03;50.31
78898;DHT22;68287;44.714;37.756;2023-03-01T04:47:43;19.06;50.33
78898;DHT22;68287;44.714;37.756;2023-03-01T04:48:45;19.06;50.36
78898;DHT22;68287;44.714;37.756;2023-03-01T04:49:48;19.03;50.30
78898;DHT22;68287;44.714;37.756;2023-03-01T04:50:49;19.05;50.27
78898;DHT22;68287;44.714;37.756;2023-03-01T04:51:50;19.05;50.24
78898;DHT22;68287;44.714;37.756;2023-03-01T04:52:52;19.06;50.21
78898;DHT22;68287;44.714;37.756;2023-03-01T04:53:53;19.06;50.28
78898;DHT22;68287;44.714;37.756;2023-03-01T04:54:55;19.03;50.22
78898;DHT22;68287;44.714;37.756;2023-03-01T04:55:56;19.03;50.19
78898;DHT22;68287;44.714;37.756;2023-03-01T04:56:58;19.03;50.14
78898;DHT22;68287;44.714;37.756;2023-03-01T04:57:59;19.02;50.12
78898;DHT22;68287;44.714;37.756;2023-03-01T04:59:00;19.00;50.11
78898;DHT22;68287;44.714;37.756;2023-03-01T05:00:03;19.02;50.16
78898;DHT22;68287;44.714;37.756;2023-03-01T05:01:20;18.98;50.13
78898;DHT22;68287;44.714;37.756;2023-03-01T05:02:22;18.98;50.09
78898;DHT22;68287;44.714;37.756;2023-03-01T05:03:24;19.00;50.06
78898;DHT22;68287;44.714;37.756;2023-03-01T05:04:25;18.99;50.05
78898;DHT22;68287;44.714;37.756;2023-03-01T05:05:30;18.98;50.08
78898;DHT22;68287;44.714;37.756;2023-03-01T05:06:32;19.00;50.04
78898;DHT22;68287;44.714;37.756;2023-03-01T05:07:33;18.96;50.05
78898;DHT22;68287;44.714;37.756;2023-03-01T05:08:35;18.96;50.01
78898;DHT22;68287;44.714;37.756;2023-03-01T05:09:38;18.98;50.03
78898;DHT22;68287;44.714;37.756;2023-03-01T05:10:39;18.94;50.00
78898;DHT22;68287;44.714;37.756;2023-03-01T05:11:42;18.96;49.97
78898;DHT22;68287;44.714;37.756;2023-03-01T05:12:43;18.98;49.94
78898;DHT22;68287;44.714;37.756;2023-03-01T05:13:45;18.98;49.99
78898;DHT22;68287;44.714;37.756;2023-03-01T05:14:46;18.98;49.89
78898;DHT22;68287;44.714;37.756;2023-03-01T05:15:58;18.98;49.96
78898;DHT22;68287;44.714;37.756;2023-03-01T05:17:00;18.95;49.86
78898;DHT22;68287;44.714;37.756;2023-03-01T05:18:05;18.94;49.86
78898;DHT22;68287;44.714;37.756;2023-03-01T05:19:12;18.92;49.85
78898;DHT22;68287;44.714;37.756;2023-03-01T05:20:16;18.92;49.89
78898;DHT22;68287;44.714;37.756;2023-03-01T05:21:17;18.96;49.83
78898;DHT22;68287;44.714;37.756;2023-03-01T05:22:19;18.96;49.82
78898;DHT22;68287;44.714;37.756;2023-03-01T05:23:20;18.92;49.80
78898;DHT22;68287;44.714;37.756;2023-03-01T05:24:22;18.95;49.78
78898;DHT22;68287;44.714;37.756;2023-03-01T05:25:23;18.94;49.80
78898;DHT22;68287;44.714;37.756;2023-03-01T05:26:25;18.92;49.71
78898;DHT22;68287;44.714;37.756;2023-03-01T05:27:29;18.92;49.76
78898;DHT22;68287;44.714;37.756;2023-03-01T05:28:31;18.95;49.74
78898;DHT22;68287;44.714;37.756;2023-03-01T05:29:33;18.91;49.70
78898;DHT22;68287;44.714;37.756;2023-03-01T05:30:36;18.94;49.68
78898;DHT22;68287;44.714;37.756;2023-03-01T05:31:40;18.91;49.69
78898;DHT22;68287;44.714;37.756;2023-03-01T05:32:43;18.92;49.67
78898;DHT22;68287;44.714;37.756;2023-03-01T05:33:45;18.91;49.65
78898;DHT22;68287;44.714;37.756;2023-03-01T05:34:47;18.89;49.62
78898;DHT22;68287;44.714;37.756;2023-03-01T05:35:49;18.92;49.62
78898;DHT22;68287;44.714;37.756;2023-03-01T05:36:52;18.91;49.67
78898;DHT22;68287;44.714;37.756;2023-03-01T05:37:54;18.91;49.60
78898;DHT22;68287;44.714;37.756;2023-03-01T05:38:55;18.91;49.61
78898;DHT22;68287;44.714;37.756;2023-03-01T05:39:57;18.91;49.56
78898;DHT22;68287;44.714;37.756;2023-03-01T05:40:58;18.89;49.54
78898;DHT22;68287;44.714;37.756;2023-03-01T05:42:01;18.89;49.61
78898;DHT22;68287;44.714;37.756;2023-03-01T05:43:02;18.89;49.54
78898;DHT22;68287;44.714;37.756;2023-03-01T05:44:06;18.88;49.52
78898;DHT22;68287;44.714;37.756;2023-03-01T05:45:09;18.88;49.56
78898;DHT22;68287;44.714;37.756;2023-03-01T05:46:10;18.88;49.53
78898;DHT22;68287;44.714;37.756;2023-03-01T05:47:14;18.88;49.47
78898;DHT22;68287;44.714;37.756;2023-03-01T05:48:15;18.88;49.51
78898;DHT22;68287;44.714;37.756;2023-03-01T05:49:17;18.89;49.47
78898;DHT22;68287;44.714;37.756;2023-03-01T05:50:21;18.87;49.45
78898;DHT22;68287;44.714;37.756;2023-03-01T05:51:23;18.85;49.49
78898;DHT22;68287;44.714;37.756;2023-03-01T05:52:24;18.88;49.48
78898;DHT22;68287;44.714;37.756;2023-03-01T05:53:26;18.87;49.49
78898;DHT22;68287;44.714;37.756;2023-03-01T05:54:27;18.89;49.47
78898;DHT22;68287;44.714;37.756;2023-03-01T05:55:30;18.87;49.42
78898;DHT22;68287;44.714;37.756;2023-03-01T05:56:33;18.87;49.47
78898;DHT22;68287;44.714;37.756;2023-03-01T05:57:35;18.85;49.43
78898;DHT22;68287;44.714;37.756;2023-03-01T05:58:36;18.87;49.40
78898;DHT22;68287;44.714;37.756;2023-03-01T05:59:39;18.88;49.39
78898;DHT22;68287;44.714;37.756;2023-03-01T06:00:42;18.88;49.38
78898;DHT22;68287;44.714;37.756;2023-03-01T06:01:43;18.87;49.43
78898;DHT22;68287;44.714;37.756;2023-03-01T06:02:45;18.85;49.44
78898;DHT22;68287;44.714;37.756;2023-03-01T06:03:46;18.85;49.38
78898;DHT22;68287;44.714;37.756;2023-03-01T06:04:48;18.87;49.37
78898;DHT22;68287;44.714;37.756;2023-03-01T06:05:49;18.87;49.35
78898;DHT22;68287;44.714;37.756;2023-03-01T06:06:51;18.88;49.39
78898;DHT22;68287;44.714;37.756;2023-03-01T06:07:52;18.88;49.36
78898;DHT22;68287;44.714;37.756;2023-03-01T06:08:54;18.87;49.36
78898;DHT22;68287;44.714;37.756;2023-03-01T06:09:55;18.85;49.35
78898;DHT22;68287;44.714;37.756;2023-03-01T06:10:57;18.84;49.33
78898;DHT22;68287;44.714;37.756;2023-03-01T06:11:58;18.87;49.39
78898;DHT22;68287;44.714;37.756;2023-03-01T06:12:59;18.85;49.34
78898;DHT22;68287;44.714;37.756;2023-03-01T06:14:00;18.85;49.29
78898;DHT22;68287;44.714;37.756;2023-03-01T06:15:03;18.85;49.32
78898;DHT22;68287;44.714;37.756;2023-03-01T06:16:06;18.84;49.34
78898;DHT22;68287;44.714;37.756;2023-03-01T06:17:08;18.85;49.32
78898;DHT22;68287;44.714;37.756;2023-03-01T06:18:09;18.84;49.32
78898;DHT22;68287;44.714;37.756;2023-03-01T06:19:10;18.84;49.33
78898;DHT22;68287;44.714;37.756;2023-03-01T06:20:15;18.82;49.29
78898;DHT22;68287;44.714;37.756;2023-03-01T06:21:17;18.84;49.32
78898;DHT22;68287;44.714;37.756;2023-03-01T06:22:18;18.82;49.26
78898;DHT22;68287;44.714;37.756;2023-03-01T06:23:19;18.87;49.27
78898;DHT22;68287;44.714;37.756;2023-03-01T06:24:20;18.85;49.29
78898;DHT22;68287;44.714;37.756;2023-03-01T06:25:23;18.84;49.22
78898;DHT22;68287;44.714;37.756;2023-03-01T06:26:25;18.82;49.23
78898;DHT22;68287;44.714;37.756;2023-03-01T06:27:26;18.81;49.20
78898;DHT22;68287;44.714;37.756;2023-03-01T06:28:27;18.84;49.18
78898;DHT22;68287;44.714;37.756;2023-03-01T06:29:29;18.82;49.19
78898;DHT22;68287;44.714;37.756;2023-03-01T06:30:30;18.84;49.22
78898;DHT22;68287;44.714;37.756;2023-03-01T06:31:31;18.81;49.17
78898;DHT22;68287;44.714;37.756;2023-03-01T06:32:33;18.84;49.19
78898;DHT22;68287;44.714;37.756;2023-03-01T06:33:34;18.84;49.15
78898;DHT22;68287;44.714;37.756;2023-03-01T06:34:36;18.84;49.16
78898;DHT22;68287;44.714;37.756;2023-03-01T06:35:38;18.81;49.17
78898;DHT22;68287;44.714;37.756;2023-03-01T06:36:40;18.82;49.17
78898;DHT22;68287;44.714;37.756;2023-03-01T06:37:41;18.84;49.18
78898;DHT22;68287;44.714;37.756;2023-03-01T06:38:42;18.84;49.19